ADDS TAF Data INFO
IDs: Format: Raw Decoded Include METARs

Data at: 1527 UTC 23 Jun 2018

KPHX 231451Z 11009KT 10SM CLR 31/07 A2977 RMK AO2 SLP060 T03110072 51024 $

KPHX 231417Z 2314/2418 11008KT P6SM SKC
  FM231700 24007KT P6SM SKC
  FM232000 25012G20KT P6SM SKC
  FM240300 26009KT P6SM SKC
  FM241200 11007KT P6SM SKC